Time;durP1;ratioP1;P1;durP2;ratioP2;P2;SDS_P1;SDS_P2;PMS_P1;PMS_P2;Temp;Humidity;BMP_temperature;BMP_pressure;BME280_temperature;BME280_humidity;BME280_pressure;Samples;Min_cycle;Max_cycle;Signal;HPM_P1;HPM_P2
2022/06/09 00:01:06;;;;;;;19.73;13.73;;;538.00;2406.40;;;;;;5111815;28;20560;-77
2022/06/09 00:03:43;;;;;;;20.35;14.00;;;537.90;2406.40;;;;;;5101913;28;20020;-77
2022/06/09 00:06:10;;;;;;;23.95;14.43;;;537.90;2406.40;;;;;;5113495;28;20469;-77
2022/06/09 00:08:40;;;;;;;23.38;14.23;;;537.80;2406.40;;;;;;5113563;28;20031;-77
2022/06/09 00:11:07;;;;;;;20.85;14.02;;;537.90;2406.40;;;;;;5113831;28;20076;-77
2022/06/09 00:13:35;;;;;;;18.77;13.95;;;537.90;2406.40;;;;;;5112396;28;20434;-77
2022/06/09 00:16:01;;;;;;;20.63;14.15;;;537.90;2406.40;;;;;;5112498;28;20384;-77
2022/06/09 00:18:27;;;;;;;18.30;12.85;;;537.90;2406.40;;;;;;5112254;28;20032;-77
2022/06/09 00:20:53;;;;;;;18.50;14.13;;;537.80;2406.40;;;;;;5113925;28;20072;-79
2022/06/09 00:23:20;;;;;;;22.77;14.05;;;537.70;2406.40;;;;;;5112249;28;20030;-78
2022/06/09 00:25:46;;;;;;;19.45;12.75;;;537.70;2406.40;;;;;;5100427;28;20126;-79
2022/06/09 00:28:12;;;;;;;18.83;13.07;;;537.60;2406.40;;;;;;5107578;28;20115;-79
2022/06/09 00:30:38;;;;;;;20.00;14.50;;;537.60;2406.40;;;;;;5104478;28;20042;-78
2022/06/09 00:33:04;;;;;;;22.83;14.90;;;537.60;2406.40;;;;;;5112277;28;20024;-79
2022/06/09 00:35:30;;;;;;;21.27;13.93;;;537.70;2406.40;;;;;;5112226;28;20020;-79
2022/06/09 00:37:55;;;;;;;22.00;13.20;;;537.70;2406.40;;;;;;5113418;28;20016;-79
2022/06/09 00:40:21;;;;;;;18.85;13.50;;;537.60;2406.40;;;;;;5110082;28;20047;-79
2022/06/09 00:42:47;;;;;;;20.20;14.70;;;537.70;2406.40;;;;;;5099750;28;20034;-78
2022/06/09 00:45:31;;;;;;;22.83;15.23;;;537.60;2406.40;;;;;;5113317;28;20032;-78
2022/06/09 00:48:25;;;;;;;26.40;15.15;;;512.90;2380.80;;;;;;5105026;27;20070;-78
2022/06/09 00:51:09;;;;;;;19.38;13.55;;;512.90;2380.80;;;;;;5111407;28;20031;-79
2022/06/09 00:53:38;;;;;;;21.23;15.52;;;512.90;2380.80;;;;;;5111959;28;20023;-78
2022/06/09 00:56:06;;;;;;;20.35;14.23;;;512.90;2380.80;;;;;;5107703;28;20032;-78
2022/06/09 00:58:36;;;;;;;22.10;14.18;;;512.80;2380.80;;;;;;5093018;28;20023;-78
2022/06/09 01:01:05;;;;;;;28.15;15.85;;;512.80;2380.80;;;;;;5094103;28;20016;-78
2022/06/09 01:03:40;;;;;;;22.17;15.60;;;512.80;2380.80;;;;;;5113034;28;20020;-78
2022/06/09 01:06:29;;;;;;;26.23;15.48;;;512.70;2380.80;;;;;;5111630;28;20139;-79
2022/06/09 01:09:00;;;;;;;23.75;16.05;;;512.60;2380.80;;;;;;5099558;28;20035;-78
2022/06/09 01:11:26;;;;;;;23.40;15.77;;;512.50;2380.80;;;;;;5111362;28;20065;-78
2022/06/09 01:13:56;;;;;;;21.77;15.10;;;512.60;2380.80;;;;;;5111445;28;20499;-78
2022/06/09 01:16:24;;;;;;;21.98;16.38;;;512.70;2380.80;;;;;;5111504;28;20023;-78
2022/06/09 01:19:04;;;;;;;22.88;14.60;;;512.60;2380.80;;;;;;5113039;28;20019;-78
2022/06/09 01:21:45;;;;;;;22.02;15.07;;;512.60;2380.80;;;;;;5112599;28;20060;-78
2022/06/09 01:24:23;;;;;;;24.73;16.52;;;512.50;2380.80;;;;;;5112400;28;20019;-78
2022/06/09 01:27:06;;;;;;;18.60;14.95;;;512.40;2380.80;;;;;;5083501;28;20027;-78
2022/06/09 01:29:47;;;;;;;23.45;15.35;;;512.40;2380.80;;;;;;5111130;28;20046;-78
2022/06/09 01:32:24;;;;;;;23.48;15.55;;;512.40;2380.80;;;;;;5103949;28;20027;-78
2022/06/09 01:35:09;;;;;;;17.90;13.57;;;512.60;2380.80;;;;;;5108644;28;20481;-78
2022/06/09 01:37:57;;;;;;;21.38;14.40;;;512.60;2380.80;;;;;;5112734;28;20481;-78
2022/06/09 01:40:23;;;;;;;21.65;14.13;;;512.60;2380.80;;;;;;5106081;28;20048;-79
2022/06/09 01:42:57;;;;;;;22.73;15.18;;;512.60;2380.80;;;;;;5100178;28;20020;-79
2022/06/09 01:45:47;;;;;;;16.55;13.48;;;512.50;2380.80;;;;;;5095247;28;20028;-78
2022/06/09 01:48:16;;;;;;;19.45;13.52;;;512.60;2380.80;;;;;;5101071;28;20027;-79
2022/06/09 01:50:57;;;;;;;23.25;14.43;;;512.50;2380.80;;;;;;5111138;28;20032;-79
2022/06/09 01:53:40;;;;;;;21.88;14.57;;;512.40;2380.80;;;;;;5111283;28;20443;-79
2022/06/09 01:56:27;;;;;;;21.48;14.73;;;512.30;2380.80;;;;;;5110115;28;20023;-78
2022/06/09 01:58:58;;;;;;;24.90;14.45;;;512.40;2380.80;;;;;;5110932;28;20032;-79
2022/06/09 02:01:33;;;;;;;21.60;13.95;;;512.40;2380.80;;;;;;5110599;28;20042;-78
2022/06/09 02:04:02;;;;;;;21.33;13.45;;;512.20;2380.80;;;;;;5096549;28;20027;-78
2022/06/09 02:06:29;;;;;;;19.25;13.95;;;512.30;2380.80;;;;;;5098977;28;20019;-78
2022/06/09 02:08:55;;;;;;;19.27;13.43;;;512.30;2380.80;;;;;;5110729;28;20028;-78
2022/06/09 02:11:21;;;;;;;16.52;12.00;;;512.20;2380.80;;;;;;5112571;28;20036;-78
2022/06/09 02:13:50;;;;;;;16.25;11.80;;;512.30;2380.80;;;;;;5115245;28;20090;-79
2022/06/09 02:16:19;;;;;;;16.40;10.70;;;512.30;2380.80;;;;;;5114849;28;20073;-79
2022/06/09 02:18:49;;;;;;;15.35;11.43;;;512.30;2380.80;;;;;;5115276;28;20026;-78
2022/06/09 02:21:24;;;;;;;13.52;10.63;;;512.30;2380.80;;;;;;5114861;28;20020;-79
2022/06/09 02:23:51;;;;;;;13.75;9.80;;;512.30;2380.80;;;;;;5115027;28;20026;-77
2022/06/09 02:26:17;;;;;;;20.05;10.80;;;512.50;2380.80;;;;;;5114598;28;20039;-78
2022/06/09 02:28:43;;;;;;;18.45;9.68;;;512.50;2380.80;;;;;;5106659;28;20217;-78
2022/06/09 02:31:10;;;;;;;12.95;8.73;;;512.60;2380.80;;;;;;5108562;28;20027;-78
2022/06/09 02:33:36;;;;;;;14.25;8.10;;;512.70;2380.80;;;;;;5115560;28;20022;-78
2022/06/09 02:36:02;;;;;;;13.00;9.05;;;512.80;2380.80;;;;;;5102587;28;20031;-78
2022/06/09 02:38:27;;;;;;;13.85;9.35;;;512.80;2380.80;;;;;;5112214;28;20381;-78
2022/06/09 02:40:57;;;;;;;13.65;9.48;;;512.70;2380.80;;;;;;5109446;28;20489;-78
2022/06/09 02:43:24;;;;;;;14.13;9.40;;;512.80;2380.80;;;;;;5106652;28;20039;-77
2022/06/09 02:45:53;;;;;;;15.02;9.65;;;512.70;2380.80;;;;;;5096656;28;20023;-78
2022/06/09 02:48:20;;;;;;;16.30;9.68;;;512.50;2380.80;;;;;;5105246;28;20028;-78
2022/06/09 02:50:46;;;;;;;12.63;9.45;;;512.50;2380.80;;;;;;5099437;28;20131;-77
2022/06/09 02:53:13;;;;;;;14.02;9.80;;;512.40;2380.80;;;;;;5115606;28;20023;-78
2022/06/09 02:55:39;;;;;;;16.13;10.13;;;512.30;2380.80;;;;;;5115321;28;20043;-78
2022/06/09 02:58:05;;;;;;;12.40;8.57;;;512.30;2380.80;;;;;;5109721;28;20472;-79
2022/06/09 03:00:31;;;;;;;13.30;9.77;;;512.20;2380.80;;;;;;5104702;28;20027;-78
2022/06/09 03:03:02;;;;;;;18.10;10.77;;;512.30;2380.80;;;;;;5115156;28;20046;-81
2022/06/09 03:05:30;;;;;;;19.10;9.38;;;512.30;2380.80;;;;;;5113883;28;20024;-79
2022/06/09 03:07:56;;;;;;;21.23;9.10;;;512.20;2380.80;;;;;;5113995;28;20027;-78
2022/06/09 03:10:22;;;;;;;14.70;8.88;;;512.20;2380.80;;;;;;5113739;28;20519;-78
2022/06/09 03:12:48;;;;;;;15.68;9.55;;;512.30;2380.80;;;;;;5115288;28;20034;-78
2022/06/09 03:15:17;;;;;;;20.70;8.82;;;512.40;2380.80;;;;;;5113757;28;20028;-78
2022/06/09 03:17:43;;;;;;;14.52;9.70;;;512.40;2380.80;;;;;;5114929;28;20015;-79
2022/06/09 03:20:15;;;;;;;15.23;10.00;;;512.40;2380.80;;;;;;5096372;28;20031;-78
2022/06/09 03:22:41;;;;;;;16.55;9.70;;;512.50;2380.80;;;;;;5113226;28;20032;-78
2022/06/09 03:25:07;;;;;;;23.23;10.15;;;512.60;2380.80;;;;;;5098558;28;20107;-77
2022/06/09 03:27:34;;;;;;;12.10;9.27;;;512.70;2380.80;;;;;;5102257;28;20024;-78
2022/06/09 03:30:01;;;;;;;13.57;9.38;;;512.60;2380.80;;;;;;5114813;28;20083;-78
2022/06/09 03:32:28;;;;;;;20.50;9.98;;;512.80;2380.80;;;;;;5085310;28;20107;-78
2022/06/09 03:34:54;;;;;;;13.73;9.80;;;512.70;2380.80;;;;;;5113565;28;20042;-78
2022/06/09 03:37:20;;;;;;;15.80;8.90;;;512.70;2380.80;;;;;;5114695;28;20377;-78
2022/06/09 03:39:45;;;;;;;17.63;9.80;;;512.90;2380.80;;;;;;5103642;28;20101;-78
2022/06/09 03:42:11;;;;;;;15.55;10.50;;;512.90;2380.80;;;;;;5095151;28;20032;-78
2022/06/09 03:44:37;;;;;;;15.10;10.55;;;512.80;2380.80;;;;;;5113184;28;20030;-78
2022/06/09 03:47:05;;;;;;;15.70;10.43;;;512.80;2380.80;;;;;;5114478;28;20023;-78
2022/06/09 03:49:31;;;;;;;18.30;10.95;;;512.80;2380.80;;;;;;5112717;28;20126;-78
2022/06/09 03:51:57;;;;;;;15.93;10.48;;;512.80;2380.80;;;;;;5114529;28;20100;-78
2022/06/09 03:54:22;;;;;;;14.05;10.35;;;512.90;2380.80;;;;;;5112961;28;20063;-78
2022/06/09 03:56:48;;;;;;;16.48;10.93;;;512.90;2380.80;;;;;;5114571;28;20023;-78
2022/06/09 03:59:14;;;;;;;12.93;10.45;;;512.90;2380.80;;;;;;5112554;28;20156;-78
2022/06/09 04:01:40;;;;;;;15.98;10.75;;;537.60;2406.40;;;;;;5112674;28;20039;-78
2022/06/09 04:04:06;;;;;;;15.73;10.57;;;537.60;2406.40;;;;;;5099863;28;20024;-78
2022/06/09 04:06:34;;;;;;;12.07;10.10;;;537.60;2406.40;;;;;;5112645;28;20024;-78
2022/06/09 04:09:00;;;;;;;21.02;11.68;;;537.80;2406.40;;;;;;5100495;28;20024;-78
2022/06/09 04:11:26;;;;;;;12.35;10.07;;;537.60;2406.40;;;;;;5106316;28;20096;-78
2022/06/09 04:13:52;;;;;;;14.32;10.48;;;537.60;2406.40;;;;;;5104522;28;20028;-78
2022/06/09 04:16:26;;;;;;;16.15;10.52;;;537.80;2406.40;;;;;;5113723;28;20024;-78
2022/06/09 04:18:53;;;;;;;14.70;9.68;;;537.80;2406.40;;;;;;5112881;28;20110;-78
2022/06/09 04:21:20;;;;;;;20.73;10.73;;;537.70;2406.40;;;;;;5113512;27;20031;-78
2022/06/09 04:23:46;;;;;;;15.48;9.93;;;537.80;2406.40;;;;;;5113557;28;20377;-78
2022/06/09 04:26:20;;;;;;;12.23;9.35;;;537.80;2406.40;;;;;;5113658;28;20023;-79
2022/06/09 04:28:46;;;;;;;11.25;9.82;;;537.90;2406.40;;;;;;5112084;28;20028;-78
2022/06/09 04:31:13;;;;;;;18.58;10.52;;;537.80;2406.40;;;;;;5112148;28;20035;-79
2022/06/09 04:33:39;;;;;;;14.43;10.25;;;537.80;2406.40;;;;;;5099294;28;20024;-79
2022/06/09 04:36:06;;;;;;;14.93;9.63;;;537.90;2406.40;;;;;;5112476;28;20469;-79
2022/06/09 04:38:32;;;;;;;18.67;10.77;;;538.10;2406.40;;;;;;5112085;28;20056;-79
2022/06/09 04:40:57;;;;;;;22.90;11.07;;;538.00;2406.40;;;;;;5102762;27;20044;-78
2022/06/09 04:43:24;;;;;;;12.15;9.30;;;538.00;2406.40;;;;;;5105290;28;20467;-80
2022/06/09 04:45:49;;;;;;;13.05;9.30;;;538.10;2406.40;;;;;;5098434;28;20023;-82
2022/06/09 04:48:16;;;;;;;12.65;8.48;;;538.10;2406.40;;;;;;5101858;28;20096;-82
2022/06/09 04:50:42;;;;;;;14.63;9.38;;;538.20;2406.40;;;;;;5109303;28;20120;-81
2022/06/09 04:53:09;;;;;;;14.57;8.85;;;538.20;2406.40;;;;;;5112776;28;20069;-83
2022/06/09 04:55:36;;;;;;;16.27;8.88;;;538.20;2406.40;;;;;;5113173;28;20027;-78
2022/06/09 04:58:02;;;;;;;15.63;7.07;;;538.20;2406.40;;;;;;5112027;28;20023;-79
2022/06/09 05:00:28;;;;;;;10.88;7.20;;;538.10;2406.40;;;;;;5111786;28;20114;-78
2022/06/09 05:02:55;;;;;;;11.80;6.68;;;538.20;2406.40;;;;;;5107802;28;20095;-79
2022/06/09 05:05:33;;;;;;;11.48;7.82;;;538.20;2406.40;;;;;;5092902;28;20024;-80
2022/06/09 05:07:59;;;;;;;9.70;7.20;;;538.30;2406.40;;;;;;5105715;28;20028;-79
2022/06/09 05:10:27;;;;;;;11.27;6.97;;;538.40;2406.40;;;;;;5104249;28;20039;-80
2022/06/09 05:12:53;;;;;;;9.43;7.40;;;538.20;2406.40;;;;;;5111601;28;20440;-78
2022/06/09 05:15:20;;;;;;;9.52;6.32;;;538.30;2406.40;;;;;;5103381;28;20057;-77
2022/06/09 05:17:48;;;;;;;9.60;6.07;;;538.30;2406.40;;;;;;5106948;28;20172;-77
2022/06/09 05:20:16;;;;;;;11.18;6.57;;;538.30;2406.40;;;;;;5103495;28;20120;-78
2022/06/09 05:22:42;;;;;;;8.27;6.55;;;538.30;2406.40;;;;;;5105453;28;20016;-77
2022/06/09 05:25:09;;;;;;;9.23;6.20;;;538.30;2406.40;;;;;;5102221;28;20043;-76
2022/06/09 05:27:35;;;;;;;8.20;6.47;;;538.40;2406.40;;;;;;5092049;28;20027;-77
2022/06/09 05:30:02;;;;;;;8.00;6.35;;;538.50;2406.40;;;;;;5090478;28;20431;-77
2022/06/09 05:32:28;;;;;;;10.68;7.05;;;538.50;2406.40;;;;;;5090622;28;20500;-77
2022/06/09 05:34:54;;;;;;;9.05;6.70;;;538.50;2406.40;;;;;;5091896;28;20028;-78
2022/06/09 05:37:19;;;;;;;8.98;6.75;;;538.50;2406.40;;;;;;5091148;28;20027;-78
2022/06/09 05:45:16;;;;;;;10.15;7.05;;;563.20;2432.00;;;;;;5099240;28;20085;-77
2022/06/09 05:47:42;;;;;;;10.00;7.93;;;538.40;2406.40;;;;;;5088333;28;20055;-77
2022/06/09 05:50:09;;;;;;;9.90;6.60;;;563.30;2432.00;;;;;;5116778;28;20051;-78
2022/06/09 05:52:36;;;;;;;13.95;7.57;;;563.30;2432.00;;;;;;5116624;28;20033;-77
2022/06/09 05:55:02;;;;;;;10.00;7.00;;;563.30;2432.00;;;;;;5116617;28;20026;-78
2022/06/09 05:57:29;;;;;;;10.65;7.20;;;563.40;2432.00;;;;;;5116335;28;20023;-77
2022/06/09 05:59:55;;;;;;;9.10;6.93;;;538.50;2406.40;;;;;;5116587;28;20063;-76
2022/06/09 06:02:23;;;;;;;16.13;8.05;;;563.60;2432.00;;;;;;5094532;28;20035;-77
2022/06/09 06:04:50;;;;;;;10.38;7.88;;;563.60;2432.00;;;;;;5116412;28;20077;-76
2022/06/09 06:07:15;;;;;;;12.13;8.18;;;563.70;2432.00;;;;;;5116428;28;20069;-75
2022/06/09 06:09:41;;;;;;;10.88;7.03;;;563.70;2432.00;;;;;;5110451;28;20052;-77
2022/06/09 06:12:08;;;;;;;12.35;7.57;;;563.70;2432.00;;;;;;5094384;28;20024;-77
2022/06/09 06:14:34;;;;;;;12.95;8.23;;;563.80;2432.00;;;;;;5100755;28;20046;-77
2022/06/09 06:17:00;;;;;;;13.80;8.85;;;563.90;2432.00;;;;;;5094481;28;20027;-78
2022/06/09 06:19:26;;;;;;;9.68;6.75;;;564.00;2432.00;;;;;;5095194;28;20028;-78
2022/06/09 06:21:53;;;;;;;10.20;7.18;;;563.90;2432.00;;;;;;5095364;28;20020;-78
2022/06/09 06:24:23;;;;;;;8.68;7.38;;;564.00;2432.00;;;;;;5088514;28;20067;-77
2022/06/09 06:26:49;;;;;;;12.48;7.25;;;588.80;2432.00;;;;;;5099028;28;20019;-78
2022/06/09 06:29:21;;;;;;;10.65;6.07;;;589.00;2432.00;;;;;;5102569;28;20484;-79
2022/06/09 06:31:48;;;;;;;7.72;5.65;;;589.30;2432.00;;;;;;5114543;28;20046;-78
2022/06/09 06:34:14;;;;;;;8.27;6.55;;;589.40;2432.00;;;;;;5105127;28;20026;-79
2022/06/09 06:36:40;;;;;;;9.23;5.15;;;589.30;2432.00;;;;;;5098282;28;20025;-78
2022/06/09 06:39:06;;;;;;;14.20;10.13;;;589.10;2432.00;;;;;;5097523;28;20031;-78
2022/06/09 06:41:32;;;;;;;29.75;15.80;;;589.30;2432.00;;;;;;5103323;28;20499;-78
2022/06/09 06:43:58;;;;;;;33.92;16.52;;;589.50;2432.00;;;;;;5104902;28;20060;-78
2022/06/09 06:46:23;;;;;;;23.83;12.45;;;589.50;2432.00;;;;;;5102483;28;20098;-79
2022/06/09 06:48:49;;;;;;;6.65;5.40;;;589.50;2432.00;;;;;;5102510;28;20024;-79
2022/06/09 06:51:16;;;;;;;8.23;5.50;;;589.20;2432.00;;;;;;5114100;28;20027;-78
2022/06/09 06:53:42;;;;;;;11.77;7.60;;;589.00;2432.00;;;;;;5104449;28;20508;-78
2022/06/09 06:56:09;;;;;;;11.57;8.70;;;589.10;2432.00;;;;;;5106159;28;20468;-79
2022/06/09 06:58:35;;;;;;;14.32;9.98;;;589.10;2432.00;;;;;;5093684;28;20020;-79
2022/06/09 07:01:02;;;;;;;19.88;11.73;;;589.20;2432.00;;;;;;5093568;28;20358;-79
2022/06/09 07:03:29;;;;;;;11.35;8.27;;;589.30;2432.00;;;;;;5098800;28;20049;-78
2022/06/09 07:05:55;;;;;;;8.98;6.40;;;589.60;2432.00;;;;;;5114017;28;20027;-80
2022/06/09 07:08:24;;;;;;;10.27;6.63;;;589.60;2432.00;;;;;;5114170;28;20035;-78
2022/06/09 07:10:51;;;;;;;10.27;8.15;;;589.70;2432.00;;;;;;5106227;28;20031;-77
2022/06/09 07:13:17;;;;;;;8.48;5.63;;;589.70;2432.00;;;;;;5109932;28;20023;-78
2022/06/09 07:15:43;;;;;;;7.88;6.03;;;614.50;2432.00;;;;;;5108322;28;20027;-77
2022/06/09 07:18:09;;;;;;;12.27;6.72;;;614.60;2432.00;;;;;;5108108;28;20023;-77
2022/06/09 07:20:36;;;;;;;9.65;5.50;;;614.80;2432.00;;;;;;5109581;28;20028;-76
2022/06/09 07:23:02;;;;;;;10.48;7.68;;;614.70;2432.00;;;;;;5094621;28;20024;-77
2022/06/09 07:25:28;;;;;;;10.48;6.70;;;614.80;2432.00;;;;;;5110208;28;20028;-78
2022/06/09 07:27:54;;;;;;;12.48;7.85;;;615.10;2432.00;;;;;;5105266;28;20028;-77
2022/06/09 07:30:22;;;;;;;12.68;6.15;;;615.30;2432.00;;;;;;5094019;28;20032;-77
2022/06/09 07:32:49;;;;;;;12.75;8.23;;;640.00;2432.00;;;;;;5092443;28;20043;-77
2022/06/09 07:35:18;;;;;;;6.47;4.80;;;640.00;2432.00;;;;;;5093772;28;20016;-78
2022/06/09 07:37:44;;;;;;;8.05;4.25;;;640.00;2432.00;;;;;;5093334;28;20020;-77
2022/06/09 07:40:11;;;;;;;13.02;5.55;;;640.00;2432.00;;;;;;5093432;28;20079;-77
2022/06/09 07:42:37;;;;;;;8.57;4.80;;;640.20;2432.00;;;;;;5099954;28;20076;-78
2022/06/09 07:45:05;;;;;;;8.13;3.90;;;640.10;2432.00;;;;;;5114424;28;20027;-77
2022/06/09 07:47:31;;;;;;;9.93;4.50;;;640.10;2432.00;;;;;;5098554;28;20024;-77
2022/06/09 07:49:57;;;;;;;6.97;3.95;;;640.30;2432.00;;;;;;5114394;28;20047;-76
2022/06/09 07:52:23;;;;;;;5.72;4.55;;;640.50;2432.00;;;;;;5113187;28;20024;-77
2022/06/09 07:54:49;;;;;;;6.38;3.70;;;640.50;2432.00;;;;;;5084038;28;20444;-77
2022/06/09 07:57:16;;;;;;;7.03;3.92;;;640.60;2432.00;;;;;;5087966;28;20052;-77
2022/06/09 07:59:42;;;;;;;8.07;4.35;;;640.60;2432.00;;;;;;5091303;28;20032;-78
2022/06/09 08:02:10;;;;;;;5.60;3.60;;;640.40;2432.00;;;;;;5093056;28;20016;-78
2022/06/09 08:04:36;;;;;;;4.63;3.58;;;640.60;2432.00;;;;;;5092613;28;20051;-77
2022/06/09 08:07:02;;;;;;;7.88;4.40;;;640.60;2432.00;;;;;;5091543;28;20071;-77
2022/06/09 08:09:29;;;;;;;6.72;4.45;;;640.60;2432.00;;;;;;5091826;28;20028;-78
2022/06/09 08:11:55;;;;;;;8.73;4.43;;;640.70;2432.00;;;;;;5092015;28;20023;-78
2022/06/09 08:14:21;;;;;;;8.52;4.60;;;640.20;2432.00;;;;;;5090892;28;20032;-78
2022/06/09 08:16:47;;;;;;;10.05;4.70;;;640.80;2432.00;;;;;;5091323;28;20039;-78
2022/06/09 08:19:12;;;;;;;7.57;4.65;;;665.60;2432.00;;;;;;5093088;28;20020;-79
2022/06/09 08:21:38;;;;;;;10.75;4.40;;;665.70;2432.00;;;;;;5092919;28;20012;-79
2022/06/09 08:24:05;;;;;;;6.55;4.32;;;665.80;2432.00;;;;;;5091780;28;20050;-79
2022/06/09 08:26:31;;;;;;;6.78;4.40;;;665.80;2432.00;;;;;;5092694;28;20013;-79
2022/06/09 08:28:57;;;;;;;6.18;5.50;;;666.00;2432.00;;;;;;5092972;28;20024;-78
2022/06/09 08:31:23;;;;;;;8.68;4.43;;;666.00;2432.00;;;;;;5091217;28;20408;-78
2022/06/09 08:33:48;;;;;;;7.63;4.30;;;665.80;2432.00;;;;;;5092938;28;20048;-78
2022/06/09 08:36:14;;;;;;;8.13;5.15;;;665.80;2432.00;;;;;;5092600;28;20028;-78
2022/06/09 08:38:41;;;;;;;5.43;4.78;;;666.00;2432.00;;;;;;5092175;28;20111;-78
2022/06/09 08:41:30;;;;;;;7.40;4.15;;;666.10;2432.00;;;;;;5091503;28;20044;-80
2022/06/09 08:44:18;;;;;;;6.35;3.95;;;666.20;2406.40;;;;;;5087916;28;20103;-77
2022/06/09 08:46:53;;;;;;;7.35;4.35;;;666.40;2329.60;;;;;;5090377;28;20029;-76
2022/06/09 08:49:47;;;;;;;6.03;3.80;;;691.20;2432.00;;;;;;5089664;28;20043;-75
2022/06/09 08:52:45;;;;;;;4.55;3.47;;;691.20;2304.00;;;;;;5088991;28;20257;-76
2022/06/09 08:55:38;;;;;;;10.05;4.43;;;666.50;2355.20;;;;;;5006570;28;20499;-76
2022/06/09 08:58:25;;;;;;;4.82;3.90;;;691.20;2432.00;;;;;;5010068;28;20025;-76
2022/06/09 09:01:19;;;;;;;5.57;3.38;;;691.40;2304.00;;;;;;5009952;28;20083;-78
2022/06/09 09:03:57;;;;;;;6.75;3.30;;;691.50;2227.20;;;;;;5009430;28;20161;-78
2022/06/09 09:06:56;;;;;;;5.97;4.10;;;691.60;2201.60;;;;;;4992395;28;20034;-79
2022/06/09 09:09:24;;;;;;;6.70;4.20;;;691.40;2227.20;;;;;;4993709;28;20408;-79
2022/06/09 09:12:21;;;;;;;6.80;3.78;;;691.30;2227.20;;;;;;4993777;28;20558;-79
2022/06/09 09:14:53;;;;;;;3.92;2.83;;;691.40;2073.60;;;;;;4932824;29;20099;-81
2022/06/09 09:17:38;;;;;;;5.88;3.30;;;691.60;2073.60;;;;;;4914953;29;20138;-79
2022/06/09 09:20:21;;;;;;;8.60;3.67;;;666.50;2176.00;;;;;;4915003;29;20028;-76
2022/06/09 09:23:12;;;;;;;7.75;3.67;;;666.50;2252.80;;;;;;4932459;29;20055;-77
2022/06/09 09:25:53;;;;;;;6.43;3.75;;;691.20;2252.80;;;;;;4930526;29;20046;-77
2022/06/09 09:28:25;;;;;;;7.80;3.53;;;691.40;2227.20;;;;;;4932285;29;20611;-77
2022/06/09 09:31:12;;;;;;;4.15;3.53;;;691.60;2073.60;;;;;;4952563;28;20045;-79
2022/06/09 09:33:38;;;;;;;5.25;4.18;;;691.80;2124.80;;;;;;5001096;28;20018;-78
2022/06/09 09:36:17;;;;;;;5.20;3.72;;;691.80;2022.40;;;;;;5009598;28;20464;-78
2022/06/09 09:38:52;;;;;;;5.82;3.60;;;691.70;2073.60;;;;;;5002614;28;20042;-77
2022/06/09 09:41:35;;;;;;;7.85;3.72;;;716.90;2124.80;;;;;;5019311;28;20140;-79
2022/06/09 09:44:23;;;;;;;5.28;4.13;;;717.10;2022.40;;;;;;5019270;28;20084;-77
2022/06/09 09:46:59;;;;;;;5.85;3.40;;;717.10;1920.00;;;;;;5006528;28;20723;-78
2022/06/09 09:49:40;;;;;;;5.22;3.58;;;717.30;2022.40;;;;;;5019678;28;20033;-78
2022/06/09 09:52:45;;;;;;;5.53;3.78;;;717.40;1996.80;;;;;;5060763;28;20035;-78
2022/06/09 09:55:30;;;;;;;8.20;4.38;;;717.50;1894.40;;;;;;5049137;28;20040;-77
2022/06/09 09:58:18;;;;;;;7.13;4.03;;;717.30;1945.60;;;;;;5048972;28;20024;-76
2022/06/09 10:00:47;;;;;;;7.00;4.03;;;717.20;1920.00;;;;;;4989533;28;20156;-77
2022/06/09 10:09:00;;;;;;;7.78;3.72;;;691.90;2099.20;;;;;;4988718;28;20038;-77
2022/06/09 10:14:40;;;;;;;7.20;3.83;;;717.50;1996.80;;;;;;4990091;28;20025;-78
2022/06/09 10:17:19;;;;;;;6.05;4.07;;;717.10;1996.80;;;;;;4988277;28;20042;-77
2022/06/09 10:20:18;;;;;;;6.00;3.25;;;717.40;1996.80;;;;;;4987949;28;20448;-77
2022/06/09 10:23:17;;;;;;;6.22;4.10;;;717.70;1894.40;;;;;;4884448;29;20515;-76
2022/06/09 10:25:52;;;;;;;4.57;3.08;;;717.60;1843.20;;;;;;4879441;29;20044;-76
2022/06/09 10:28:37;;;;;;;6.88;3.47;;;742.80;1817.60;;;;;;4904435;29;20111;-79
2022/06/09 10:31:30;;;;;;;7.47;3.47;;;742.80;1766.40;;;;;;4903681;29;20055;-79
2022/06/09 10:34:19;;;;;;;6.07;3.35;;;743.10;1792.00;;;;;;4907192;29;20271;-80
2022/06/09 10:37:09;;;;;;;5.25;4.00;;;742.80;1792.00;;;;;;4912129;28;20040;-80
2022/06/09 10:39:41;;;;;;;7.07;3.63;;;742.80;1843.20;;;;;;4984901;28;20049;-79
2022/06/09 10:42:26;;;;;;;6.20;3.15;;;742.60;1843.20;;;;;;4993212;28;20469;-78
2022/06/09 10:45:17;;;;;;;3.97;3.13;;;717.40;1843.20;;;;;;4992264;28;20041;-79
2022/06/09 10:57:46;;;;;;;4.70;3.17;;;768.00;1715.20;;;;;;4993232;28;20471;-79
2022/06/09 11:00:16;;;;;;;5.32;3.50;;;743.10;1664.00;;;;;;4967875;28;20022;-78
2022/06/09 11:02:55;;;;;;;6.32;3.40;;;742.90;1792.00;;;;;;4987941;28;20101;-79
2022/06/09 11:05:53;;;;;;;10.77;3.25;;;743.10;1817.60;;;;;;4971143;28;20034;-79
2022/06/09 11:08:45;;;;;;;5.00;3.92;;;743.10;1817.60;;;;;;4973650;28;20054;-79
2022/06/09 11:11:23;;;;;;;11.35;3.40;;;768.10;1843.20;;;;;;4976328;28;20492;-78
2022/06/09 11:13:54;;;;;;;11.13;3.95;;;768.40;1740.80;;;;;;4972317;28;20022;-82
2022/06/09 11:17:04;;;;;;;8.82;3.35;;;743.30;1766.40;;;;;;4976165;28;20096;-80
2022/06/09 11:19:40;;;;;;;6.00;3.95;;;743.00;1894.40;;;;;;4968083;28;20086;-77
2022/06/09 11:22:24;;;;;;;6.07;3.65;;;768.00;1792.00;;;;;;4990403;28;20030;-80
2022/06/09 11:25:19;;;;;;;4.53;3.40;;;768.30;1740.80;;;;;;4974318;28;20030;-81
2022/06/09 11:28:09;;;;;;;7.55;3.13;;;768.40;1715.20;;;;;;4974502;28;20034;-79
2022/06/09 11:30:35;;;;;;;5.43;3.35;;;768.10;1740.80;;;;;;5009529;28;20059;-79
2022/06/09 11:33:13;;;;;;;10.57;3.42;;;768.10;1792.00;;;;;;5093521;28;20016;-79
2022/06/09 11:36:09;;;;;;;5.32;3.28;;;743.20;1817.60;;;;;;5090479;28;20020;-80
2022/06/09 11:38:37;;;;;;;4.32;3.40;;;742.90;1766.40;;;;;;5079125;28;20051;-80
2022/06/09 11:41:34;;;;;;;5.30;3.50;;;742.80;1817.60;;;;;;5077310;28;20068;-79
2022/06/09 11:44:08;;;;;;;;;;;717.70;1817.60;;;;;;5076994;28;20029;-79
2022/06/09 11:46:37;;;;;;;4.10;2.85;;;717.70;1715.20;;;;;;5079632;28;19908;-80
2022/06/09 11:49:19;;;;;;;5.30;2.65;;;742.70;1715.20;;;;;;5082220;28;20501;-80
2022/06/09 11:51:46;;;;;;;4.85;2.97;;;768.00;1587.20;;;;;;5081073;28;20040;-79
2022/06/09 11:54:38;;;;;;;4.90;3.00;;;743.10;1587.20;;;;;;5071026;28;20488;-79
2022/06/09 11:57:16;;;;;;;7.32;2.83;;;742.90;1587.20;;;;;;5076615;28;20130;-78
2022/06/09 12:00:18;;;;;;;5.55;3.00;;;742.40;1664.00;;;;;;5076041;28;20017;-78
2022/06/09 12:03:03;;;;;;;5.00;3.75;;;717.70;1689.60;;;;;;5090534;28;20043;-78
2022/06/09 12:05:50;;;;;;;8.30;3.60;;;717.50;1843.20;;;;;;5089424;28;20020;-79
2022/06/09 12:08:40;;;;;;;4.70;3.72;;;717.40;1868.80;;;;;;5090508;28;20012;-79
2022/06/09 12:11:19;;;;;;;9.15;3.92;;;717.10;1945.60;;;;;;5092269;28;20485;-80
2022/06/09 12:14:03;;;;;;;5.85;3.65;;;716.90;1971.20;;;;;;5106595;28;20111;-78
2022/06/09 12:16:54;;;;;;;8.45;3.55;;;692.10;2022.40;;;;;;5106205;28;20024;-79
2022/06/09 12:19:24;;;;;;;9.85;4.72;;;691.90;2099.20;;;;;;5082295;28;20032;-77
2022/06/09 12:22:28;;;;;;;8.50;4.60;;;691.70;2406.40;;;;;;5093128;28;20024;-77
2022/06/09 12:25:10;;;;;;;5.00;4.30;;;691.40;2432.00;;;;;;5091786;28;20016;-77
2022/06/09 12:27:40;;;;;;;8.02;4.57;;;691.30;2432.00;;;;;;5091742;28;20040;-77
2022/06/09 12:30:24;;;;;;;11.68;4.28;;;666.40;2432.00;;;;;;5090299;28;20354;-77
2022/06/09 12:33:12;;;;;;;19.75;6.30;;;666.30;2432.00;;;;;;5090608;28;20020;-77
2022/06/09 12:35:53;;;;;;;10.40;5.60;;;665.90;2432.00;;;;;;5091798;28;20020;-77
2022/06/09 12:38:30;;;;;;;9.43;5.45;;;640.70;2432.00;;;;;;5091361;28;20035;-78
2022/06/09 12:41:02;;;;;;;9.50;6.50;;;640.50;2432.00;;;;;;5091548;28;20036;-79
2022/06/09 12:43:40;;;;;;;11.73;7.47;;;640.30;2432.00;;;;;;5088876;28;20393;-78
2022/06/09 12:46:22;;;;;;;17.95;6.97;;;640.10;2432.00;;;;;;5089864;28;20024;-78
2022/06/09 12:48:50;;;;;;;25.58;7.20;;;615.30;2432.00;;;;;;5088988;28;20430;-78
2022/06/09 12:51:32;;;;;;;9.48;6.32;;;615.30;2432.00;;;;;;5078707;28;20047;-78
2022/06/09 12:54:20;;;;;;;9.82;7.40;;;615.20;2432.00;;;;;;5083309;28;20447;-78
2022/06/09 12:57:12;;;;;;;11.57;6.68;;;615.30;2432.00;;;;;;5072855;28;20055;-78
2022/06/09 12:59:39;;;;;;;13.02;8.65;;;615.20;2432.00;;;;;;5070632;28;20068;-78